Аэропорт: Абакан. Абакан

ICAO: UNAA

METAR:
2020-08-09 22:30:00
UNAA 092230Z 35001MPS 9000 NSC 13/12 Q1004 R02/090065 NOSIG RMK QFE730
METAR:
2020-08-09 19:55:00
TAF UNAA 091955Z 0921/1021 36003MPS 3100 BR SCT011 FM100300 01003G10MPS 9999 SCT030 FM101800 35003MPS 3200 BR SCT011